| time (UTC) | temp C | wind direction | speed KPH | gust KPH | rain 1hr cm | rain 24hr cm | rain mn cm | humidity % | barometer mb |
| 20260504205102 | 23 | 36 | 12.9 | 22.5 | 0.00 | 0.00 | 0.00 | 27 | 1004.2 |
| 20260504204602 | 24 | 38 | 4.8 | 20.9 | 0.00 | 0.00 | 0.00 | 27 | 1004.1 |
| 20260504204103 | 24 | 20 | 8.0 | 20.9 | 0.00 | 0.00 | 0.00 | 27 | 1004.1 |
| 20260504203603 | 24 | 14 | 11.3 | 22.5 | 0.00 | 0.00 | 0.00 | 26 | 1004.1 |
| 20260504203103 | 24 | 27 | 11.3 | 22.5 | 0.00 | 0.00 | 0.00 | 26 | 1003.8 |
| 20260504202603 | 25 | 34 | 9.7 | 22.5 | 0.00 | 0.00 | 0.00 | 26 | 1003.9 |
| 20260504202102 | 25 | 33 | 12.9 | 24.1 | 0.00 | 0.00 | 0.00 | 25 | 1003.8 |
| 20260504201603 | 25 | 23 | 6.4 | 25.7 | 0.00 | 0.00 | 0.00 | 28 | 1003.9 |
| 20260504201102 | 25 | 328 | 6.4 | 20.9 | 0.00 | 0.00 | 0.00 | 29 | 1003.9 |
| 20260504200602 | 25 | 10 | 9.7 | 22.5 | 0.00 | 0.00 | 0.00 | 27 | 1003.9 |
| 20260504195603 | 25 | 56 | 8.0 | 19.3 | 0.00 | 0.00 | 0.00 | 26 | 1003.8 |
| 20260504195102 | 25 | 33 | 8.0 | 24.1 | 0.00 | 0.00 | 0.00 | 27 | 1003.7 |
| 20260504194603 | 25 | 34 | 11.3 | 29.0 | 0.00 | 0.00 | 0.00 | 25 | 1003.6 |
| 20260504194103 | 25 | 343 | 3.2 | 25.7 | 0.00 | 0.00 | 0.00 | 27 | 1003.5 |
| 20260504193603 | 26 | 35 | 14.5 | 29.0 | 0.00 | 0.00 | 0.00 | 24 | 1003.7 |
| 20260504193102 | 26 | 10 | 9.7 | 20.9 | 0.00 | 0.00 | 0.00 | 24 | 1003.4 |
| 20260504192103 | 26 | 7 | 9.7 | 20.9 | 0.00 | 0.00 | 0.00 | 25 | 1003.6 |
| 20260504191603 | 26 | 38 | 14.5 | 22.5 | 0.00 | 0.00 | 0.00 | 23 | 1003.6 |
| 20260504191102 | 26 | 341 | 11.3 | 25.7 | 0.00 | 0.00 | 0.00 | 24 | 1003.6 |
| 20260504190602 | 26 | 20 | 9.7 | 32.2 | 0.00 | 0.00 | 0.00 | 26 | 1003.6 |
| 20260504185602 | 26 | 32 | 14.5 | 24.1 | 0.00 | 0.00 | 0.00 | 25 | 1003.5 |
| 20260504185103 | 26 | 55 | 9.7 | 24.1 | 0.00 | 0.00 | 0.00 | 23 | 1003.5 |
| 20260504184603 | 26 | 25 | 9.7 | 27.4 | 0.00 | 0.00 | 0.00 | 24 | 1003.5 |
| 20260504183602 | 26 | 39 | 14.5 | 25.7 | 0.00 | 0.00 | 0.00 | 21 | 1003.5 |
| 20260504183102 | 27 | 29 | 11.3 | 24.1 | 0.00 | 0.00 | 0.00 | 20 | 1003.4 |
| 20260504182603 | 27 | 10 | 6.4 | 24.1 | 0.00 | 0.00 | 0.00 | 21 | 1003.5 |
| 20260504182102 | 26 | 48 | 8.0 | 16.1 | 0.00 | 0.00 | 0.00 | 18 | 1003.5 |
| 20260504181603 | 27 | 308 | 14.5 | 29.0 | 0.00 | 0.00 | 0.00 | 18 | 1003.5 |
| 20260504180602 | 27 | 33 | 8.0 | 20.9 | 0.00 | 0.00 | 0.00 | 17 | 1003.5 |
| 20260504175602 | 26 | 47 | 6.4 | 16.1 | 0.00 | 0.00 | 0.00 | 18 | 1003.5 |
| 20260504175103 | 26 | 56 | 4.8 | 16.1 | 0.00 | 0.00 | 0.00 | 17 | 1003.6 |
| 20260504174603 | 27 | 90 | 9.7 | 19.3 | 0.00 | 0.00 | 0.00 | 17 | 1003.7 |
| 20260504174103 | 26 | 316 | 8.0 | 20.9 | 0.00 | 0.00 | 0.00 | 16 | 1003.7 |
| 20260504173602 | 26 | 323 | 14.5 | 20.9 | 0.00 | 0.00 | 0.00 | 16 | 1003.7 |
| 20260504173103 | 26 | 332 | 11.3 | 24.1 | 0.00 | 0.00 | 0.00 | 18 | 1003.8 |
| 20260504172603 | 26 | 320 | 11.3 | 29.0 | 0.00 | 0.00 | 0.00 | 17 | 1003.8 |
| 20260504172103 | 26 | 27 | 9.7 | 20.9 | 0.00 | 0.00 | 0.00 | 17 | 1003.8 |
| 20260504171603 | 26 | 314 | 8.0 | 19.3 | 0.00 | 0.00 | 0.00 | 17 | 1003.8 |
| 20260504171102 | 26 | 312 | 9.7 | 20.9 | 0.00 | 0.00 | 0.00 | 19 | 1003.8 |
| 20260504170602 | 26 | 314 | 11.3 | 27.4 | 0.00 | 0.00 | 0.00 | 19 | 1003.9 |
| 20260504151102 | 20 | 289 | 9.7 | 16.1 | 0.00 | 0.00 | 0.00 | 37 | 1004.5 |
| 20260504150603 | 19 | 289 | 11.3 | 20.9 | 0.00 | 0.00 | 0.00 | 38 | 1004.6 |
| 20260504141103 | 16 | 301 | 16.1 | 19.3 | 0.00 | 0.00 | 0.00 | 44 | 1004.7 |
| 20260504140602 | 16 | 304 | 11.3 | 20.9 | 0.00 | 0.00 | 0.00 | 45 | 1004.7 |
| 20260504130603 | 12 | 323 | 11.3 | 20.9 | 0.00 | 0.00 | 0.00 | 56 | 1004.5 |
| 20260504100603 | 12 | 120 | 0.0 | 1.6 | 0.00 | 0.00 | 0.00 | 52 | 1003.7 |
| 20260504100103 | 12 | 120 | 0.0 | 0.0 | 0.00 | 0.00 | 0.00 | 51 | 1003.7 |
| 20260504081602 | 14 | 120 | 8.0 | 14.5 | 0.00 | 0.00 | 0.00 | 43 | 1004.2 |
| 20260504081103 | 15 | 120 | 11.3 | 20.9 | 0.00 | 0.00 | 0.00 | 43 | 1004.3 |
| 20260504080603 | 15 | 105 | 6.4 | 16.1 | 0.00 | 0.00 | 0.00 | 41 | 1004.4 |
| 20260504060103 | 14 | 49 | 0.0 | 3.2 | 0.00 | 0.00 | 0.00 | 39 | 1006.7 |
| 20260504050603 | 15 | 49 | 1.6 | 4.8 | 0.00 | 0.00 | 0.00 | 38 | 1007.3 |
| 20260504045603 | 15 | 49 | 0.0 | 1.6 | 0.00 | 0.00 | 0.00 | 38 | 1007.3 |
| 20260504045103 | 15 | 49 | 0.0 | 1.6 | 0.00 | 0.00 | 0.00 | 38 | 1007.3 |
| 20260504044603 | 15 | 49 | 0.0 | 1.6 | 0.00 | 0.00 | 0.00 | 39 | 1007.4 |
| 20260504044102 | 15 | 49 | 0.0 | 4.8 | 0.00 | 0.00 | 0.00 | 39 | 1007.5 |
| 20260504043603 | 15 | 49 | 0.0 | 0.0 | 0.00 | 0.00 | 0.00 | 39 | 1007.5 |
| 20260504043102 | 15 | 49 | 0.0 | 0.0 | 0.00 | 0.00 | 0.00 | 39 | 1007.5 |
| 20260504042603 | 15 | 49 | 0.0 | 0.0 | 0.00 | 0.00 | 0.00 | 37 | 1007.5 |
| 20260504042103 | 15 | 49 | 0.0 | 0.0 | 0.00 | 0.00 | 0.00 | 37 | 1007.5 |
| 20260504041603 | 16 | 49 | 0.0 | 0.0 | 0.00 | 0.00 | 0.00 | 37 | 1007.6 |
| 20260504041103 | 16 | 49 | 0.0 | 1.6 | 0.00 | 0.00 | 0.00 | 37 | 1007.6 |
| 20260504040603 | 16 | 49 | 0.0 | 1.6 | 0.00 | 0.00 | 0.00 | 37 | 1007.6 |
| 20260504040103 | 16 | 49 | 1.6 | 4.8 | 0.00 | 0.00 | 0.00 | 37 | 1007.7 |
| 20260504035602 | 16 | 49 | 3.2 | 4.8 | 0.00 | 0.00 | 0.00 | 37 | 1007.9 |
| 20260504035103 | 16 | 49 | 1.6 | 3.2 | 0.00 | 0.00 | 0.00 | 37 | 1007.9 |
| 20260504034604 | 16 | 49 | 3.2 | 4.8 | 0.00 | 0.00 | 0.00 | 36 | 1008.0 |
| 20260504034103 | 16 | 49 | 1.6 | 4.8 | 0.00 | 0.00 | 0.00 | 37 | 1008.0 |
| 20260504033603 | 16 | 49 | 1.6 | 4.8 | 0.00 | 0.00 | 0.00 | 37 | 1008.1 |
| 20260504033103 | 16 | 49 | 1.6 | 3.2 | 0.00 | 0.00 | 0.00 | 37 | 1008.2 |
| 20260504032603 | 16 | 49 | 0.0 | 0.0 | 0.00 | 0.00 | 0.00 | 38 | 1008.2 |
| 20260504032103 | 16 | 49 | 0.0 | 3.2 | 0.00 | 0.00 | 0.00 | 38 | 1008.2 |
| 20260504031603 | 16 | 49 | 0.0 | 1.6 | 0.00 | 0.00 | 0.00 | 38 | 1008.3 |
| 20260504031103 | 16 | 49 | 1.6 | 8.0 | 0.00 | 0.00 | 0.00 | 38 | 1008.3 |
| 20260504030603 | 16 | 48 | 0.0 | 1.6 | 0.00 | 0.00 | 0.00 | 38 | 1008.3 |
| 20260504025603 | 17 | 48 | 0.0 | 0.0 | 0.00 | 0.00 | 0.00 | 38 | 1008.3 |
| 20260504025103 | 17 | 48 | 0.0 | 1.6 | 0.00 | 0.00 | 0.00 | 38 | 1008.3 |
| 20260504024603 | 17 | 48 | 0.0 | 1.6 | 0.00 | 0.00 | 0.00 | 37 | 1008.4 |
| 20260504024103 | 17 | 48 | 1.6 | 3.2 | 0.00 | 0.00 | 0.00 | 37 | 1008.3 |
| 20260504023603 | 17 | 48 | 1.6 | 3.2 | 0.00 | 0.00 | 0.00 | 37 | 1008.3 |
| 20260504022603 | 18 | 48 | 0.0 | 3.2 | 0.00 | 0.00 | 0.00 | 36 | 1008.4 |
| 20260504021603 | 18 | 49 | 3.2 | 8.0 | 0.00 | 0.00 | 0.00 | 35 | 1008.3 |
| 20260504020603 | 18 | 49 | 3.2 | 4.8 | 0.00 | 0.00 | 0.00 | 34 | 1008.3 |
| 20260504020103 | 19 | 48 | 4.8 | 9.7 | 0.00 | 0.00 | 0.00 | 33 | 1008.2 |
| 20260504015602 | 19 | 48 | 4.8 | 11.3 | 0.00 | 0.00 | 0.00 | 32 | 1008.3 |
| 20260504015103 | 20 | 49 | 4.8 | 8.0 | 0.00 | 0.00 | 0.00 | 32 | 1008.2 |
| 20260504014103 | 20 | 49 | 3.2 | 8.0 | 0.00 | 0.00 | 0.00 | 30 | 1008.2 |
| 20260504013603 | 20 | 49 | 3.2 | 9.7 | 0.00 | 0.00 | 0.00 | 30 | 1008.1 |
| 20260504012604 | 20 | 49 | 3.2 | 4.8 | 0.00 | 0.00 | 0.00 | 29 | 1008.2 |
| 20260504012102 | 21 | 49 | 0.0 | 3.2 | 0.00 | 0.00 | 0.00 | 29 | 1008.1 |
| 20260504011603 | 21 | 49 | 1.6 | 3.2 | 0.00 | 0.00 | 0.00 | 28 | 1008.1 |
| 20260504011103 | 21 | 49 | 3.2 | 9.7 | 0.00 | 0.00 | 0.00 | 28 | 1008.2 |
| 20260504005603 | 21 | 49 | 1.6 | 4.8 | 0.00 | 0.00 | 0.00 | 28 | 1008.4 |
| 20260504005103 | 21 | 49 | 1.6 | 4.8 | 0.00 | 0.00 | 0.00 | 27 | 1008.5 |
| 20260504004603 | 22 | 49 | 1.6 | 8.0 | 0.00 | 0.00 | 0.00 | 27 | 1008.5 |
| 20260504004103 | 22 | 49 | 3.2 | 8.0 | 0.00 | 0.00 | 0.00 | 26 | 1008.6 |
| 20260504003604 | 22 | 49 | 3.2 | 9.7 | 0.00 | 0.00 | 0.00 | 25 | 1008.6 |
| 20260504003103 | 22 | 49 | 1.6 | 9.7 | 0.00 | 0.00 | 0.00 | 24 | 1008.6 |
| 20260504002602 | 22 | 49 | 3.2 | 11.3 | 0.00 | 0.00 | 0.00 | 24 | 1008.7 |
| 20260504002103 | 22 | 49 | 3.2 | 9.7 | 0.00 | 0.00 | 0.00 | 24 | 1008.7 |
| 20260504001602 | 22 | 49 | 4.8 | 9.7 | 0.00 | 0.00 | 0.00 | 24 | 1008.9 |
| 20260504001103 | 22 | 49 | 6.4 | 11.3 | 0.00 | 0.00 | 0.00 | 24 | 1008.9 |
| 20260504000603 | 22 | 49 | 6.4 | 11.3 | 0.00 | 0.00 | 0.00 | 25 | 1009.0 |
| 20260503235602 | 22 | 50 | 8.0 | 12.9 | 0.00 | 0.00 | 0.00 | 24 | 1009.0 |
| 20260503235103 | 22 | 50 | 4.8 | 12.9 | 0.00 | 0.00 | 0.00 | 24 | 1009.0 |
| 20260503234603 | 22 | 49 | 9.7 | 12.9 | 0.00 | 0.00 | 0.00 | 24 | 1009.0 |
| 20260503234103 | 22 | 49 | 4.8 | 11.3 | 0.00 | 0.00 | 0.00 | 25 | 1009.0 |
| 20260503233603 | 22 | 50 | 6.4 | 11.3 | 0.00 | 0.00 | 0.00 | 23 | 1009.1 |
| 20260503232603 | 23 | 51 | 9.7 | 19.3 | 0.00 | 0.00 | 0.00 | 24 | 1009.2 |
| 20260503232103 | 23 | 51 | 4.8 | 12.9 | 0.00 | 0.00 | 0.00 | 25 | 1009.3 |
| 20260503231603 | 23 | 51 | 8.0 | 19.3 | 0.00 | 0.00 | 0.00 | 23 | 1009.3 |
| 20260503231103 | 23 | 53 | 9.7 | 19.3 | 0.00 | 0.00 | 0.00 | 23 | 1009.3 |
| 20260503230603 | 23 | 55 | 9.7 | 19.3 | 0.00 | 0.00 | 0.00 | 22 | 1009.4 |
| 20260503230103 | 23 | 58 | 8.0 | 9.7 | 0.00 | 0.00 | 0.00 | 21 | 1009.4 |
| 20260503225602 | 23 | 58 | 1.6 | 4.8 | 0.00 | 0.00 | 0.00 | 22 | 1009.4 |
| 20260503225103 | 23 | 58 | 3.2 | 8.0 | 0.00 | 0.00 | 0.00 | 20 | 1009.4 |
| 20260503224603 | 23 | 58 | 4.8 | 12.9 | 0.00 | 0.00 | 0.00 | 22 | 1009.4 |
| 20260503224103 | 24 | 59 | 8.0 | 12.9 | 0.00 | 0.00 | 0.00 | 22 | 1009.5 |
| 20260503223603 | 24 | 59 | 9.7 | 20.9 | 0.00 | 0.00 | 0.00 | 22 | 1009.5 |
| 20260503223103 | 24 | 70 | 8.0 | 19.3 | 0.00 | 0.00 | 0.00 | 21 | 1009.6 |
| 20260503222603 | 24 | 71 | 9.7 | 14.5 | 0.00 | 0.00 | 0.00 | 22 | 1009.6 |
| 20260503222103 | 24 | 73 | 8.0 | 20.9 | 0.00 | 0.00 | 0.00 | 21 | 1009.6 |
| 20260503221603 | 25 | 53 | 4.8 | 12.9 | 0.00 | 0.00 | 0.00 | 21 | 1009.7 |
| 20260503221103 | 25 | 52 | 3.2 | 11.3 | 0.00 | 0.00 | 0.00 | 23 | 1009.6 |
| 20260503220603 | 24 | 68 | 3.2 | 9.7 | 0.00 | 0.00 | 0.00 | 20 | 1009.8 |
| 20260503215603 | 25 | 74 | 3.2 | 8.0 | 0.00 | 0.00 | 0.00 | 19 | 1009.8 |
| 20260503215103 | 25 | 78 | 3.2 | 9.7 | 0.00 | 0.00 | 0.00 | 21 | 1010.0 |
| 20260503214603 | 25 | 79 | 9.7 | 14.5 | 0.00 | 0.00 | 0.00 | 22 | 1010.1 |
| 20260503214103 | 24 | 83 | 0.0 | 19.3 | 0.00 | 0.00 | 0.00 | 22 | 1010.2 |
| 20260503213603 | 24 | 75 | 3.2 | 9.7 | 0.00 | 0.00 | 0.00 | 22 | 1010.3 |
| 20260503213103 | 24 | 72 | 9.7 | 19.3 | 0.00 | 0.00 | 0.00 | 20 | 1010.3 |
| 20260503212103 | 24 | 92 | 4.8 | 12.9 | 0.00 | 0.00 | 0.00 | 23 | 1010.4 |
| 20260503211603 | 23 | 99 | 1.6 | 11.3 | 0.00 | 0.00 | 0.00 | 23 | 1010.4 |
| 20260503211103 | 23 | 79 | 9.7 | 16.1 | 0.00 | 0.00 | 0.00 | 22 | 1010.5 |
| 20260503210603 | 23 | 68 | 3.2 | 11.3 | 0.00 | 0.00 | 0.00 | 23 | 1010.6 |
| 20260503210103 | 23 | 66 | 8.0 | 20.9 | 0.00 | 0.00 | 0.00 | 21 | 1010.7 |